sensor_id;sensor_type;location;lat;lon;timestamp;pressure;altitude;pressure_sealevel;temperature;humidity
32747;BME280;19118;50.860;13.662;2022-09-20T00:04:40;97011.91;;;8.06;100.00
32747;BME280;19118;50.860;13.662;2022-09-20T00:09:40;97013.28;;;8.17;100.00
32747;BME280;19118;50.860;13.662;2022-09-20T00:14:41;97015.00;;;8.10;100.00
32747;BME280;19118;50.860;13.662;2022-09-20T00:19:41;97016.06;;;8.01;100.00
32747;BME280;19118;50.860;13.662;2022-09-20T00:24:41;97009.34;;;8.13;100.00
32747;BME280;19118;50.860;13.662;2022-09-20T00:29:42;97013.81;;;7.98;100.00
32747;BME280;19118;50.860;13.662;2022-09-20T00:34:42;97013.88;;;7.89;100.00
32747;BME280;19118;50.860;13.662;2022-09-20T00:40:02;97019.88;;;7.98;100.00
32747;BME280;19118;50.860;13.662;2022-09-20T00:45:25;97015.69;;;8.04;100.00
32747;BME280;19118;50.860;13.662;2022-09-20T00:50:35;97014.81;;;7.97;100.00
32747;BME280;19118;50.860;13.662;2022-09-20T00:55:40;97014.94;;;7.80;100.00
32747;BME280;19118;50.860;13.662;2022-09-20T01:00:42;97015.88;;;7.87;100.00
32747;BME280;19118;50.860;13.662;2022-09-20T01:05:44;97015.44;;;7.84;100.00
32747;BME280;19118;50.860;13.662;2022-09-20T01:10:44;97006.25;;;7.80;100.00
32747;BME280;19118;50.860;13.662;2022-09-20T01:15:46;97009.84;;;7.64;100.00
32747;BME280;19118;50.860;13.662;2022-09-20T01:20:49;97003.31;;;7.60;100.00
32747;BME280;19118;50.860;13.662;2022-09-20T01:31:30;97016.91;;;7.49;100.00
32747;BME280;19118;50.860;13.662;2022-09-20T01:36:52;97011.28;;;7.52;100.00
32747;BME280;19118;50.860;13.662;2022-09-20T01:42:09;97022.84;;;7.66;100.00
32747;BME280;19118;50.860;13.662;2022-09-20T02:03:33;97026.28;;;7.66;100.00
32747;BME280;19118;50.860;13.662;2022-09-20T02:45:46;97043.31;;;7.33;100.00
32747;BME280;19118;50.860;13.662;2022-09-20T02:51:00;97050.53;;;7.39;100.00
32747;BME280;19118;50.860;13.662;2022-09-20T02:56:24;97043.91;;;7.43;100.00
32747;BME280;19118;50.860;13.662;2022-09-20T03:12:26;97044.91;;;7.42;100.00
32747;BME280;19118;50.860;13.662;2022-09-20T03:18:07;97047.94;;;7.30;100.00
32747;BME280;19118;50.860;13.662;2022-09-20T03:29:03;97057.13;;;7.35;100.00
32747;BME280;19118;50.860;13.662;2022-09-20T03:50:32;97048.59;;;7.33;100.00
32747;BME280;19118;50.860;13.662;2022-09-20T04:01:37;97046.59;;;7.35;100.00
32747;BME280;19118;50.860;13.662;2022-09-20T04:06:44;97043.22;;;7.26;100.00
32747;BME280;19118;50.860;13.662;2022-09-20T04:12:04;97053.38;;;7.06;100.00
32747;BME280;19118;50.860;13.662;2022-09-20T04:22:21;97057.25;;;7.18;100.00
32747;BME280;19118;50.860;13.662;2022-09-20T04:27:42;97061.78;;;7.24;100.00
32747;BME280;19118;50.860;13.662;2022-09-20T04:32:51;97054.44;;;7.20;100.00
32747;BME280;19118;50.860;13.662;2022-09-20T04:37:55;97059.53;;;7.21;100.00
32747;BME280;19118;50.860;13.662;2022-09-20T04:54:17;97079.63;;;7.14;100.00
32747;BME280;19118;50.860;13.662;2022-09-20T05:05:31;97091.03;;;7.29;100.00
32747;BME280;19118;50.860;13.662;2022-09-20T05:10:54;97090.56;;;7.26;100.00
32747;BME280;19118;50.860;13.662;2022-09-20T05:16:08;97096.53;;;7.43;100.00
32747;BME280;19118;50.860;13.662;2022-09-20T05:22:16;97099.38;;;7.33;100.00
32747;BME280;19118;50.860;13.662;2022-09-20T05:32:10;97111.69;;;7.41;100.00
32747;BME280;19118;50.860;13.662;2022-09-20T05:37:45;97120.38;;;7.41;100.00
32747;BME280;19118;50.860;13.662;2022-09-20T05:42:58;97134.63;;;7.47;100.00
32747;BME280;19118;50.860;13.662;2022-09-20T05:48:26;97128.81;;;7.59;100.00
32747;BME280;19118;50.860;13.662;2022-09-20T05:53:59;97137.00;;;7.42;100.00
32747;BME280;19118;50.860;13.662;2022-09-20T06:04:25;97142.28;;;7.34;100.00
32747;BME280;19118;50.860;13.662;2022-09-20T06:15:25;97148.59;;;7.24;100.00
32747;BME280;19118;50.860;13.662;2022-09-20T06:26:13;97158.81;;;7.50;100.00
32747;BME280;19118;50.860;13.662;2022-09-20T06:31:16;97157.59;;;7.61;100.00
32747;BME280;19118;50.860;13.662;2022-09-20T06:36:30;97158.09;;;7.79;100.00
32747;BME280;19118;50.860;13.662;2022-09-20T06:41:49;97164.13;;;7.65;100.00
32747;BME280;19118;50.860;13.662;2022-09-20T06:46:51;97162.75;;;7.46;100.00
32747;BME280;19118;50.860;13.662;2022-09-20T06:51:54;97163.94;;;7.44;100.00
32747;BME280;19118;50.860;13.662;2022-09-20T06:56:56;97164.13;;;7.65;100.00
32747;BME280;19118;50.860;13.662;2022-09-20T07:01:57;97168.81;;;7.55;100.00
32747;BME280;19118;50.860;13.662;2022-09-20T07:07:01;97180.16;;;7.78;100.00
32747;BME280;19118;50.860;13.662;2022-09-20T07:12:02;97180.75;;;7.88;100.00
32747;BME280;19118;50.860;13.662;2022-09-20T07:17:03;97178.69;;;7.99;100.00
32747;BME280;19118;50.860;13.662;2022-09-20T07:22:03;97184.50;;;8.17;100.00
32747;BME280;19118;50.860;13.662;2022-09-20T07:27:04;97183.88;;;8.30;100.00
32747;BME280;19118;50.860;13.662;2022-09-20T07:32:04;97185.44;;;8.62;100.00
32747;BME280;19118;50.860;13.662;2022-09-20T07:37:05;97188.22;;;8.60;100.00
32747;BME280;19118;50.860;13.662;2022-09-20T07:42:05;97194.78;;;9.09;100.00
32747;BME280;19118;50.860;13.662;2022-09-20T07:47:07;97199.13;;;8.72;100.00
32747;BME280;19118;50.860;13.662;2022-09-20T07:52:10;97204.16;;;8.96;100.00
32747;BME280;19118;50.860;13.662;2022-09-20T07:57:10;97203.34;;;9.11;100.00
32747;BME280;19118;50.860;13.662;2022-09-20T08:02:15;97206.88;;;8.73;100.00
32747;BME280;19118;50.860;13.662;2022-09-20T08:07:15;97208.16;;;8.63;100.00
32747;BME280;19118;50.860;13.662;2022-09-20T08:12:16;97218.06;;;8.38;100.00
32747;BME280;19118;50.860;13.662;2022-09-20T08:17:18;97219.50;;;8.63;100.00
32747;BME280;19118;50.860;13.662;2022-09-20T08:22:19;97216.16;;;8.84;100.00
32747;BME280;19118;50.860;13.662;2022-09-20T08:27:19;97220.34;;;9.08;100.00
32747;BME280;19118;50.860;13.662;2022-09-20T08:32:19;97216.25;;;8.76;100.00
32747;BME280;19118;50.860;13.662;2022-09-20T08:37:20;97232.94;;;8.31;100.00
32747;BME280;19118;50.860;13.662;2022-09-20T08:42:27;97234.22;;;8.58;100.00
32747;BME280;19118;50.860;13.662;2022-09-20T08:47:30;97240.47;;;8.57;100.00
32747;BME280;19118;50.860;13.662;2022-09-20T08:52:34;97250.16;;;8.79;100.00
32747;BME280;19118;50.860;13.662;2022-09-20T08:57:36;97240.41;;;8.50;100.00
32747;BME280;19118;50.860;13.662;2022-09-20T09:02:37;97245.38;;;8.97;100.00
32747;BME280;19118;50.860;13.662;2022-09-20T09:07:38;97245.53;;;9.40;100.00
32747;BME280;19118;50.860;13.662;2022-09-20T09:12:42;97248.13;;;9.70;100.00
32747;BME280;19118;50.860;13.662;2022-09-20T09:17:45;97242.75;;;9.99;100.00
32747;BME280;19118;50.860;13.662;2022-09-20T09:22:47;97248.25;;;10.40;100.00
32747;BME280;19118;50.860;13.662;2022-09-20T09:33:25;97262.63;;;9.44;100.00
32747;BME280;19118;50.860;13.662;2022-09-20T09:38:30;97264.59;;;8.83;100.00
32747;BME280;19118;50.860;13.662;2022-09-20T09:43:33;97267.69;;;8.72;100.00
32747;BME280;19118;50.860;13.662;2022-09-20T09:48:34;97272.09;;;8.94;100.00
32747;BME280;19118;50.860;13.662;2022-09-20T09:53:35;97275.69;;;8.18;100.00
32747;BME280;19118;50.860;13.662;2022-09-20T09:59:01;97271.91;;;8.43;100.00
32747;BME280;19118;50.860;13.662;2022-09-20T10:04:19;97264.13;;;8.65;100.00
32747;BME280;19118;50.860;13.662;2022-09-20T10:09:34;97272.38;;;8.85;100.00
32747;BME280;19118;50.860;13.662;2022-09-20T10:15:11;97268.91;;;8.99;100.00
32747;BME280;19118;50.860;13.662;2022-09-20T10:20:30;97261.56;;;9.24;100.00
32747;BME280;19118;50.860;13.662;2022-09-20T10:31:14;97270.53;;;9.95;100.00
32747;BME280;19118;50.860;13.662;2022-09-20T10:41:45;97267.38;;;11.61;100.00
32747;BME280;19118;50.860;13.662;2022-09-20T10:47:16;97272.78;;;11.05;100.00
32747;BME280;19118;50.860;13.662;2022-09-20T11:08:15;97280.09;;;11.03;100.00
32747;BME280;19118;50.860;13.662;2022-09-20T11:13:29;97282.75;;;10.54;100.00
32747;BME280;19118;50.860;13.662;2022-09-20T11:18:47;97286.94;;;10.91;100.00
32747;BME280;19118;50.860;13.662;2022-09-20T11:29:25;97282.91;;;11.71;97.73
32747;BME280;19118;50.860;13.662;2022-09-20T11:34:31;97279.53;;;11.49;94.91
32747;BME280;19118;50.860;13.662;2022-09-20T11:39:42;97275.41;;;11.40;96.50
32747;BME280;19118;50.860;13.662;2022-09-20T11:44:45;97280.91;;;12.47;94.06
32747;BME280;19118;50.860;13.662;2022-09-20T11:55:22;97289.09;;;10.81;96.85
32747;BME280;19118;50.860;13.662;2022-09-20T12:00:32;97294.06;;;9.90;100.00
32747;BME280;19118;50.860;13.662;2022-09-20T12:05:38;97286.91;;;9.69;100.00
32747;BME280;19118;50.860;13.662;2022-09-20T12:10:40;97292.28;;;9.76;100.00
32747;BME280;19118;50.860;13.662;2022-09-20T12:15:40;97297.13;;;9.57;100.00
32747;BME280;19118;50.860;13.662;2022-09-20T12:26:01;97285.41;;;10.54;100.00
32747;BME280;19118;50.860;13.662;2022-09-20T12:36:22;97274.34;;;11.75;100.00
32747;BME280;19118;50.860;13.662;2022-09-20T12:41:23;97272.56;;;11.34;92.28
32747;BME280;19118;50.860;13.662;2022-09-20T12:46:33;97276.03;;;11.07;97.31
32747;BME280;19118;50.860;13.662;2022-09-20T12:51:35;97290.28;;;11.06;98.73
32747;BME280;19118;50.860;13.662;2022-09-20T12:56:54;97294.81;;;10.20;100.00
32747;BME280;19118;50.860;13.662;2022-09-20T13:01:54;97296.66;;;9.69;100.00
32747;BME280;19118;50.860;13.662;2022-09-20T13:07:25;97294.75;;;9.48;100.00
32747;BME280;19118;50.860;13.662;2022-09-20T13:12:28;97298.13;;;9.27;100.00
32747;BME280;19118;50.860;13.662;2022-09-20T13:17:29;97293.13;;;9.32;100.00
32747;BME280;19118;50.860;13.662;2022-09-20T13:22:37;97309.78;;;9.47;100.00
32747;BME280;19118;50.860;13.662;2022-09-20T13:27:46;97294.50;;;10.30;100.00
32747;BME280;19118;50.860;13.662;2022-09-20T13:32:50;97295.91;;;10.68;100.00
32747;BME280;19118;50.860;13.662;2022-09-20T13:37:56;97295.28;;;11.22;100.00
32747;BME280;19118;50.860;13.662;2022-09-20T13:42:59;97297.13;;;11.22;97.32
32747;BME280;19118;50.860;13.662;2022-09-20T13:48:01;97302.88;;;11.73;97.61
32747;BME280;19118;50.860;13.662;2022-09-20T13:53:13;97293.31;;;12.33;94.16
32747;BME280;19118;50.860;13.662;2022-09-20T13:58:21;97293.72;;;12.30;88.45
32747;BME280;19118;50.860;13.662;2022-09-20T14:03:24;97297.69;;;11.52;94.02
32747;BME280;19118;50.860;13.662;2022-09-20T14:08:34;97303.50;;;11.06;94.96
32747;BME280;19118;50.860;13.662;2022-09-20T14:13:39;97302.94;;;10.83;99.54
32747;BME280;19118;50.860;13.662;2022-09-20T14:18:41;97305.47;;;10.48;100.00
32747;BME280;19118;50.860;13.662;2022-09-20T14:23:54;97314.84;;;11.21;100.00
32747;BME280;19118;50.860;13.662;2022-09-20T14:34:36;97309.16;;;11.31;90.49
32747;BME280;19118;50.860;13.662;2022-09-20T14:39:46;97319.09;;;11.91;90.32
32747;BME280;19118;50.860;13.662;2022-09-20T14:44:49;97333.78;;;11.25;86.74
32747;BME280;19118;50.860;13.662;2022-09-20T14:49:51;97340.63;;;10.42;87.11
32747;BME280;19118;50.860;13.662;2022-09-20T14:54:59;97348.31;;;10.07;89.65
32747;BME280;19118;50.860;13.662;2022-09-20T15:00:04;97353.09;;;9.38;91.49
32747;BME280;19118;50.860;13.662;2022-09-20T15:05:16;97358.31;;;8.94;100.00
32747;BME280;19118;50.860;13.662;2022-09-20T15:10:17;97361.16;;;8.15;100.00
32747;BME280;19118;50.860;13.662;2022-09-20T15:15:18;97364.22;;;8.27;100.00
32747;BME280;19118;50.860;13.662;2022-09-20T15:20:20;97360.59;;;8.28;100.00
32747;BME280;19118;50.860;13.662;2022-09-20T15:25:20;97364.69;;;8.31;100.00
32747;BME280;19118;50.860;13.662;2022-09-20T15:30:21;97355.34;;;8.20;100.00
32747;BME280;19118;50.860;13.662;2022-09-20T15:35:22;97360.38;;;8.07;100.00
32747;BME280;19118;50.860;13.662;2022-09-20T15:40:22;97368.00;;;7.94;100.00
32747;BME280;19118;50.860;13.662;2022-09-20T15:45:23;97362.81;;;7.69;100.00
32747;BME280;19118;50.860;13.662;2022-09-20T15:50:25;97364.53;;;7.46;100.00
32747;BME280;19118;50.860;13.662;2022-09-20T15:55:25;97372.13;;;7.41;100.00
32747;BME280;19118;50.860;13.662;2022-09-20T16:00:26;97368.88;;;7.30;100.00
32747;BME280;19118;50.860;13.662;2022-09-20T16:05:26;97368.09;;;7.14;100.00
32747;BME280;19118;50.860;13.662;2022-09-20T16:10:26;97368.56;;;7.09;100.00
32747;BME280;19118;50.860;13.662;2022-09-20T16:15:27;97378.59;;;6.97;100.00
32747;BME280;19118;50.860;13.662;2022-09-20T16:20:27;97379.13;;;6.93;100.00
32747;BME280;19118;50.860;13.662;2022-09-20T16:25:27;97385.34;;;6.84;100.00
32747;BME280;19118;50.860;13.662;2022-09-20T16:30:28;97385.84;;;6.71;100.00
32747;BME280;19118;50.860;13.662;2022-09-20T16:35:28;97397.97;;;6.56;100.00
32747;BME280;19118;50.860;13.662;2022-09-20T16:40:28;97399.44;;;6.50;100.00
32747;BME280;19118;50.860;13.662;2022-09-20T16:45:29;97411.28;;;6.46;100.00
32747;BME280;19118;50.860;13.662;2022-09-20T16:50:29;97407.31;;;6.42;100.00
32747;BME280;19118;50.860;13.662;2022-09-20T16:55:30;97411.75;;;6.41;100.00
32747;BME280;19118;50.860;13.662;2022-09-20T17:00:30;97407.28;;;6.26;100.00
32747;BME280;19118;50.860;13.662;2022-09-20T17:05:32;97414.50;;;6.24;100.00
32747;BME280;19118;50.860;13.662;2022-09-20T17:10:32;97417.75;;;6.18;100.00
32747;BME280;19118;50.860;13.662;2022-09-20T17:15:33;97422.84;;;6.19;100.00
32747;BME280;19118;50.860;13.662;2022-09-20T17:20:34;97425.22;;;5.96;100.00
32747;BME280;19118;50.860;13.662;2022-09-20T17:25:34;97433.19;;;5.87;100.00
32747;BME280;19118;50.860;13.662;2022-09-20T17:30:35;97444.50;;;5.87;100.00
32747;BME280;19118;50.860;13.662;2022-09-20T17:35:35;97451.84;;;6.01;100.00
32747;BME280;19118;50.860;13.662;2022-09-20T17:40:36;97459.81;;;6.26;100.00
32747;BME280;19118;50.860;13.662;2022-09-20T17:45:37;97476.94;;;6.46;100.00
32747;BME280;19118;50.860;13.662;2022-09-20T17:50:37;97487.88;;;6.92;100.00
32747;BME280;19118;50.860;13.662;2022-09-20T17:55:37;97494.13;;;6.83;100.00
32747;BME280;19118;50.860;13.662;2022-09-20T18:00:38;97496.91;;;6.89;100.00
32747;BME280;19118;50.860;13.662;2022-09-20T18:05:38;97505.16;;;7.03;100.00
32747;BME280;19118;50.860;13.662;2022-09-20T18:10:38;97505.78;;;6.96;100.00
32747;BME280;19118;50.860;13.662;2022-09-20T18:15:42;97492.78;;;6.87;100.00
32747;BME280;19118;50.860;13.662;2022-09-20T18:20:44;97506.09;;;6.85;100.00
32747;BME280;19118;50.860;13.662;2022-09-20T18:25:45;97514.81;;;6.86;100.00
32747;BME280;19118;50.860;13.662;2022-09-20T18:31:04;97516.81;;;7.00;100.00
32747;BME280;19118;50.860;13.662;2022-09-20T18:36:04;97517.78;;;6.99;100.00
32747;BME280;19118;50.860;13.662;2022-09-20T18:41:05;97519.75;;;6.89;100.00
32747;BME280;19118;50.860;13.662;2022-09-20T18:46:05;97529.28;;;6.82;100.00
32747;BME280;19118;50.860;13.662;2022-09-20T18:51:07;97525.31;;;6.86;100.00
32747;BME280;19118;50.860;13.662;2022-09-20T18:56:18;97531.72;;;6.83;100.00
32747;BME280;19118;50.860;13.662;2022-09-20T19:01:48;97524.63;;;6.76;100.00
32747;BME280;19118;50.860;13.662;2022-09-20T19:12:16;97537.09;;;6.65;100.00
32747;BME280;19118;50.860;13.662;2022-09-20T19:17:23;97548.91;;;6.61;100.00
32747;BME280;19118;50.860;13.662;2022-09-20T19:22:44;97548.41;;;6.58;100.00
32747;BME280;19118;50.860;13.662;2022-09-20T19:27:49;97559.53;;;6.52;100.00
32747;BME280;19118;50.860;13.662;2022-09-20T19:32:50;97564.59;;;6.45;100.00
32747;BME280;19118;50.860;13.662;2022-09-20T19:38:14;97564.03;;;6.25;100.00
32747;BME280;19118;50.860;13.662;2022-09-20T19:48:37;97569.19;;;6.09;100.00
32747;BME280;19118;50.860;13.662;2022-09-20T19:53:38;97575.25;;;6.35;100.00
32747;BME280;19118;50.860;13.662;2022-09-20T19:58:39;97575.78;;;6.47;100.00
32747;BME280;19118;50.860;13.662;2022-09-20T20:03:41;97575.47;;;6.50;100.00
32747;BME280;19118;50.860;13.662;2022-09-20T20:08:47;97582.03;;;6.54;100.00
32747;BME280;19118;50.860;13.662;2022-09-20T20:13:51;97592.94;;;6.59;100.00
32747;BME280;19118;50.860;13.662;2022-09-20T20:19:30;97591.78;;;6.62;100.00
32747;BME280;19118;50.860;13.662;2022-09-20T20:24:49;97601.97;;;6.65;100.00
32747;BME280;19118;50.860;13.662;2022-09-20T20:29:50;97604.13;;;6.69;100.00
32747;BME280;19118;50.860;13.662;2022-09-20T20:34:51;97605.78;;;6.70;100.00
32747;BME280;19118;50.860;13.662;2022-09-20T20:39:51;97606.28;;;6.74;100.00
32747;BME280;19118;50.860;13.662;2022-09-20T20:44:52;97623.25;;;6.80;100.00
32747;BME280;19118;50.860;13.662;2022-09-20T20:49:52;97611.41;;;6.84;100.00
32747;BME280;19118;50.860;13.662;2022-09-20T20:54:54;97623.25;;;6.88;100.00
32747;BME280;19118;50.860;13.662;2022-09-20T20:59:54;97629.53;;;6.95;100.00
32747;BME280;19118;50.860;13.662;2022-09-20T21:04:54;97618.19;;;6.94;100.00
32747;BME280;19118;50.860;13.662;2022-09-20T21:09:55;97623.31;;;7.04;100.00
32747;BME280;19118;50.860;13.662;2022-09-20T21:14:55;97630.22;;;7.05;100.00
32747;BME280;19118;50.860;13.662;2022-09-20T21:19:55;97629.88;;;7.00;100.00
32747;BME280;19118;50.860;13.662;2022-09-20T21:24:56;97632.19;;;7.03;100.00
32747;BME280;19118;50.860;13.662;2022-09-20T21:29:57;97634.84;;;7.11;100.00
32747;BME280;19118;50.860;13.662;2022-09-20T21:34:57;97635.97;;;7.09;100.00
32747;BME280;19118;50.860;13.662;2022-09-20T21:39:58;97634.34;;;7.08;100.00
32747;BME280;19118;50.860;13.662;2022-09-20T21:44:58;97640.09;;;7.11;100.00
32747;BME280;19118;50.860;13.662;2022-09-20T21:49:59;97647.00;;;7.12;100.00
32747;BME280;19118;50.860;13.662;2022-09-20T21:54:59;97649.94;;;7.09;100.00
32747;BME280;19118;50.860;13.662;2022-09-20T21:59:59;97652.44;;;7.19;100.00
32747;BME280;19118;50.860;13.662;2022-09-20T22:05:00;97658.22;;;7.14;100.00
32747;BME280;19118;50.860;13.662;2022-09-20T22:10:02;97653.59;;;7.16;100.00
32747;BME280;19118;50.860;13.662;2022-09-20T22:15:02;97658.53;;;7.19;100.00
32747;BME280;19118;50.860;13.662;2022-09-20T22:20:03;97658.53;;;7.19;100.00
32747;BME280;19118;50.860;13.662;2022-09-20T22:25:04;97657.53;;;7.20;100.00
32747;BME280;19118;50.860;13.662;2022-09-20T22:30:05;97658.88;;;7.24;100.00
32747;BME280;19118;50.860;13.662;2022-09-20T22:35:06;97662.00;;;7.20;100.00
32747;BME280;19118;50.860;13.662;2022-09-20T22:40:07;97660.50;;;7.17;100.00
32747;BME280;19118;50.860;13.662;2022-09-20T22:45:08;97654.75;;;7.14;100.00
32747;BME280;19118;50.860;13.662;2022-09-20T22:50:08;97664.56;;;7.04;100.00
32747;BME280;19118;50.860;13.662;2022-09-20T22:55:09;97660.59;;;6.99;100.00
32747;BME280;19118;50.860;13.662;2022-09-20T23:00:09;97656.31;;;6.98;100.00
32747;BME280;19118;50.860;13.662;2022-09-20T23:05:10;97662.41;;;6.99;100.00
32747;BME280;19118;50.860;13.662;2022-09-20T23:10:10;97659.75;;;6.91;100.00
32747;BME280;19118;50.860;13.662;2022-09-20T23:15:11;97665.16;;;6.89;100.00
32747;BME280;19118;50.860;13.662;2022-09-20T23:20:11;97662.69;;;6.88;100.00
32747;BME280;19118;50.860;13.662;2022-09-20T23:25:11;97665.97;;;6.82;100.00
32747;BME280;19118;50.860;13.662;2022-09-20T23:30:12;97667.94;;;6.80;100.00
32747;BME280;19118;50.860;13.662;2022-09-20T23:35:12;97680.91;;;6.81;100.00
32747;BME280;19118;50.860;13.662;2022-09-20T23:40:13;97679.94;;;6.90;100.00
32747;BME280;19118;50.860;13.662;2022-09-20T23:45:13;97669.16;;;7.01;100.00
32747;BME280;19118;50.860;13.662;2022-09-20T23:50:14;97678.19;;;6.99;100.00
32747;BME280;19118;50.860;13.662;2022-09-20T23:55:14;97688.56;;;7.09;100.00
